sensor_id;sensor_type;location;lat;lon;timestamp;pressure;altitude;pressure_sealevel;temperature;humidity
85850;BME280;76337;42.850;-0.560;2024-02-21T00:02:07;89678.63;;;4.60;52.47
85850;BME280;76337;42.850;-0.560;2024-02-21T00:04:32;89681.28;;;4.66;51.49
85850;BME280;76337;42.850;-0.560;2024-02-21T00:06:59;89677.16;;;4.67;51.00
85850;BME280;76337;42.850;-0.560;2024-02-21T00:09:24;89672.25;;;4.70;52.28
85850;BME280;76337;42.850;-0.560;2024-02-21T00:11:50;89664.75;;;4.66;53.21
85850;BME280;76337;42.850;-0.560;2024-02-21T00:14:16;89661.34;;;4.64;53.69
85850;BME280;76337;42.850;-0.560;2024-02-21T00:16:41;89661.28;;;4.68;52.57
85850;BME280;76337;42.850;-0.560;2024-02-21T00:19:07;89661.81;;;4.78;52.12
85850;BME280;76337;42.850;-0.560;2024-02-21T00:21:33;89660.28;;;4.85;51.85
85850;BME280;76337;42.850;-0.560;2024-02-21T00:23:59;89654.72;;;4.87;51.65
85850;BME280;76337;42.850;-0.560;2024-02-21T00:26:24;89656.00;;;4.94;50.87
85850;BME280;76337;42.850;-0.560;2024-02-21T00:28:51;89654.53;;;4.99;51.80
85850;BME280;76337;42.850;-0.560;2024-02-21T00:31:17;89641.44;;;5.00;51.68
85850;BME280;76337;42.850;-0.560;2024-02-21T00:33:43;89632.50;;;4.97;49.90
85850;BME280;76337;42.850;-0.560;2024-02-21T00:36:08;89637.88;;;5.05;50.30
85850;BME280;76337;42.850;-0.560;2024-02-21T00:38:34;89619.97;;;5.04;49.22
85850;BME280;76337;42.850;-0.560;2024-02-21T00:41:00;89615.06;;;5.07;50.00
85850;BME280;76337;42.850;-0.560;2024-02-21T00:43:26;89601.94;;;5.07;50.08
85850;BME280;76337;42.850;-0.560;2024-02-21T00:45:51;89602.47;;;5.16;49.11
85850;BME280;76337;42.850;-0.560;2024-02-21T00:48:17;89607.38;;;5.11;50.44
85850;BME280;76337;42.850;-0.560;2024-02-21T00:50:43;89598.56;;;5.05;50.26
85850;BME280;76337;42.850;-0.560;2024-02-21T00:53:08;89599.88;;;5.08;49.08
85850;BME280;76337;42.850;-0.560;2024-02-21T00:55:35;89599.72;;;5.16;49.26
85850;BME280;76337;42.850;-0.560;2024-02-21T00:58:01;89596.19;;;5.21;49.77
85850;BME280;76337;42.850;-0.560;2024-02-21T01:00:27;89589.28;;;5.20;49.99
85850;BME280;76337;42.850;-0.560;2024-02-21T01:02:52;89594.13;;;5.20;48.15
85850;BME280;76337;42.850;-0.560;2024-02-21T01:05:18;89592.09;;;5.18;48.17
85850;BME280;76337;42.850;-0.560;2024-02-21T01:07:45;89589.97;;;5.21;48.24
85850;BME280;76337;42.850;-0.560;2024-02-21T01:10:11;89587.91;;;5.21;48.04
85850;BME280;76337;42.850;-0.560;2024-02-21T01:12:37;89582.28;;;5.25;48.27
85850;BME280;76337;42.850;-0.560;2024-02-21T01:15:03;89588.19;;;5.40;45.77
85850;BME280;76337;42.850;-0.560;2024-02-21T01:17:30;89572.16;;;5.49;44.79
85850;BME280;76337;42.850;-0.560;2024-02-21T01:19:55;89569.34;;;5.51;45.00
85850;BME280;76337;42.850;-0.560;2024-02-21T01:22:21;89577.53;;;5.57;44.79
85850;BME280;76337;42.850;-0.560;2024-02-21T01:24:47;89573.72;;;5.72;42.56
85850;BME280;76337;42.850;-0.560;2024-02-21T01:27:13;89577.94;;;5.69;45.34
85850;BME280;76337;42.850;-0.560;2024-02-21T01:29:38;89571.63;;;5.73;44.91
85850;BME280;76337;42.850;-0.560;2024-02-21T01:32:04;89575.81;;;5.72;45.02
85850;BME280;76337;42.850;-0.560;2024-02-21T01:34:30;89564.22;;;5.65;46.51
85850;BME280;76337;42.850;-0.560;2024-02-21T01:36:56;89568.41;;;5.62;45.57
85850;BME280;76337;42.850;-0.560;2024-02-21T01:39:21;89575.34;;;5.61;46.51
85850;BME280;76337;42.850;-0.560;2024-02-21T01:41:47;89566.53;;;5.53;45.13
85850;BME280;76337;42.850;-0.560;2024-02-21T01:44:13;89560.47;;;5.46;46.78
85850;BME280;76337;42.850;-0.560;2024-02-21T01:46:39;89558.38;;;5.47;43.31
85850;BME280;76337;42.850;-0.560;2024-02-21T01:49:05;89568.00;;;5.50;43.49
85850;BME280;76337;42.850;-0.560;2024-02-21T01:51:31;89565.94;;;5.50;43.93
85850;BME280;76337;42.850;-0.560;2024-02-21T01:53:58;89559.91;;;5.42;45.16
85850;BME280;76337;42.850;-0.560;2024-02-21T01:56:24;89559.34;;;5.35;46.88
85850;BME280;76337;42.850;-0.560;2024-02-21T01:58:50;89548.97;;;5.36;44.18
85850;BME280;76337;42.850;-0.560;2024-02-21T02:01:17;89550.41;;;5.32;45.55
85850;BME280;76337;42.850;-0.560;2024-02-21T02:03:45;89560.97;;;5.22;46.07
85850;BME280;76337;42.850;-0.560;2024-02-21T02:06:10;89546.03;;;5.09;46.20
85850;BME280;76337;42.850;-0.560;2024-02-21T02:08:36;89545.34;;;5.10;45.76
85850;BME280;76337;42.850;-0.560;2024-02-21T02:11:03;89544.06;;;5.05;46.69
85850;BME280;76337;42.850;-0.560;2024-02-21T02:13:29;89530.47;;;4.95;47.38
85850;BME280;76337;42.850;-0.560;2024-02-21T02:15:54;89542.88;;;4.94;48.80
85850;BME280;76337;42.850;-0.560;2024-02-21T02:18:20;89537.50;;;4.88;48.90
85850;BME280;76337;42.850;-0.560;2024-02-21T02:20:47;89541.75;;;4.81;49.26
85850;BME280;76337;42.850;-0.560;2024-02-21T02:23:24;89536.94;;;4.82;48.91
85850;BME280;76337;42.850;-0.560;2024-02-21T02:25:51;89535.56;;;4.81;48.28
85850;BME280;76337;42.850;-0.560;2024-02-21T02:28:19;89534.94;;;4.78;47.17
85850;BME280;76337;42.850;-0.560;2024-02-21T02:30:46;89515.69;;;4.74;47.51
85850;BME280;76337;42.850;-0.560;2024-02-21T02:33:12;89513.63;;;4.75;46.99
85850;BME280;76337;42.850;-0.560;2024-02-21T02:35:39;89506.00;;;4.77;47.45
85850;BME280;76337;42.850;-0.560;2024-02-21T02:38:06;89510.81;;;4.77;47.84
85850;BME280;76337;42.850;-0.560;2024-02-21T02:40:34;89513.00;;;4.70;47.14
85850;BME280;76337;42.850;-0.560;2024-02-21T02:43:00;89521.31;;;4.68;49.46
85850;BME280;76337;42.850;-0.560;2024-02-21T02:45:26;89512.97;;;4.72;47.40
85850;BME280;76337;42.850;-0.560;2024-02-21T02:47:54;89519.16;;;4.73;47.65
85850;BME280;76337;42.850;-0.560;2024-02-21T02:50:20;89513.69;;;4.71;47.05
85850;BME280;76337;42.850;-0.560;2024-02-21T02:52:46;89513.09;;;4.66;47.63
85850;BME280;76337;42.850;-0.560;2024-02-21T02:55:13;89521.28;;;4.70;48.87
85850;BME280;76337;42.850;-0.560;2024-02-21T02:57:39;89517.84;;;4.70;48.39
85850;BME280;76337;42.850;-0.560;2024-02-21T03:00:09;89524.69;;;4.73;48.26
85850;BME280;76337;42.850;-0.560;2024-02-21T03:02:38;89521.25;;;4.72;47.23
85850;BME280;76337;42.850;-0.560;2024-02-21T03:05:14;89514.25;;;4.77;46.88
85850;BME280;76337;42.850;-0.560;2024-02-21T03:07:41;89520.47;;;4.78;46.99
85850;BME280;76337;42.850;-0.560;2024-02-21T03:10:09;89514.78;;;4.86;46.00
85850;BME280;76337;42.850;-0.560;2024-02-21T03:12:35;89510.00;;;4.84;44.86
85850;BME280;76337;42.850;-0.560;2024-02-21T03:15:02;89517.47;;;4.90;45.87
85850;BME280;76337;42.850;-0.560;2024-02-21T03:17:29;89508.50;;;4.89;45.61
85850;BME280;76337;42.850;-0.560;2024-02-21T03:19:54;89495.47;;;4.86;44.47
85850;BME280;76337;42.850;-0.560;2024-02-21T03:22:22;89499.44;;;4.95;44.29
85850;BME280;76337;42.850;-0.560;2024-02-21T03:24:49;89489.16;;;4.91;43.58
85850;BME280;76337;42.850;-0.560;2024-02-21T03:27:14;89494.00;;;4.91;45.71
85850;BME280;76337;42.850;-0.560;2024-02-21T03:29:40;89495.63;;;4.78;47.44
85850;BME280;76337;42.850;-0.560;2024-02-21T03:32:07;89495.03;;;4.73;47.72
85850;BME280;76337;42.850;-0.560;2024-02-21T03:34:34;89481.56;;;4.57;49.44
85850;BME280;76337;42.850;-0.560;2024-02-21T03:37:01;89494.03;;;4.54;49.08
85850;BME280;76337;42.850;-0.560;2024-02-21T03:39:31;89487.19;;;4.51;47.17
85850;BME280;76337;42.850;-0.560;2024-02-21T03:41:59;89485.22;;;4.45;46.97
85850;BME280;76337;42.850;-0.560;2024-02-21T03:44:31;89492.84;;;4.43;47.81
85850;BME280;76337;42.850;-0.560;2024-02-21T03:46:59;89485.38;;;4.37;46.22
85850;BME280;76337;42.850;-0.560;2024-02-21T03:49:25;89483.25;;;4.40;47.11
85850;BME280;76337;42.850;-0.560;2024-02-21T03:51:51;89473.53;;;4.45;44.35
85850;BME280;76337;42.850;-0.560;2024-02-21T03:54:19;89470.66;;;4.51;44.42
85850;BME280;76337;42.850;-0.560;2024-02-21T03:56:45;89467.88;;;4.51;44.99
85850;BME280;76337;42.850;-0.560;2024-02-21T03:59:14;89458.88;;;4.52;44.14
85850;BME280;76337;42.850;-0.560;2024-02-21T04:01:40;89455.41;;;4.56;44.82
85850;BME280;76337;42.850;-0.560;2024-02-21T04:04:07;89448.19;;;4.71;42.39
85850;BME280;76337;42.850;-0.560;2024-02-21T04:06:34;89452.94;;;4.75;44.15
85850;BME280;76337;42.850;-0.560;2024-02-21T04:08:59;89453.53;;;4.79;42.81
85850;BME280;76337;42.850;-0.560;2024-02-21T04:11:26;89446.56;;;4.84;42.96
85850;BME280;76337;42.850;-0.560;2024-02-21T04:13:52;89453.28;;;4.93;38.59
85850;BME280;76337;42.850;-0.560;2024-02-21T04:16:18;89451.94;;;4.90;43.32
85850;BME280;76337;42.850;-0.560;2024-02-21T04:18:45;89443.13;;;4.84;44.13
85850;BME280;76337;42.850;-0.560;2024-02-21T04:21:14;89444.13;;;4.68;44.91
85850;BME280;76337;42.850;-0.560;2024-02-21T04:23:42;89444.19;;;4.64;43.80
85850;BME280;76337;42.850;-0.560;2024-02-21T04:26:08;89438.72;;;4.62;44.16
85850;BME280;76337;42.850;-0.560;2024-02-21T04:28:35;89440.88;;;4.57;44.31
85850;BME280;76337;42.850;-0.560;2024-02-21T04:31:01;89435.38;;;4.90;39.66
85850;BME280;76337;42.850;-0.560;2024-02-21T04:33:27;89436.34;;;4.77;42.39
85850;BME280;76337;42.850;-0.560;2024-02-21T04:35:54;89431.75;;;4.67;42.29
85850;BME280;76337;42.850;-0.560;2024-02-21T04:38:21;89436.00;;;4.60;43.22
85850;BME280;76337;42.850;-0.560;2024-02-21T04:40:47;89432.28;;;4.74;41.92
85850;BME280;76337;42.850;-0.560;2024-02-21T04:43:15;89428.03;;;4.79;40.22
85850;BME280;76337;42.850;-0.560;2024-02-21T04:45:42;89429.69;;;4.66;41.60
85850;BME280;76337;42.850;-0.560;2024-02-21T04:48:08;89430.38;;;4.66;43.34
85850;BME280;76337;42.850;-0.560;2024-02-21T04:50:35;89423.63;;;4.59;41.99
85850;BME280;76337;42.850;-0.560;2024-02-21T04:53:01;89429.94;;;4.53;41.96
85850;BME280;76337;42.850;-0.560;2024-02-21T04:55:28;89427.31;;;4.47;42.74
85850;BME280;76337;42.850;-0.560;2024-02-21T04:57:55;89418.41;;;4.45;42.63
85850;BME280;76337;42.850;-0.560;2024-02-21T05:00:22;89417.72;;;4.44;41.84
85850;BME280;76337;42.850;-0.560;2024-02-21T05:02:48;89419.94;;;4.36;42.97
85850;BME280;76337;42.850;-0.560;2024-02-21T05:05:15;89415.72;;;4.41;43.29
85850;BME280;76337;42.850;-0.560;2024-02-21T05:07:43;89426.03;;;4.42;41.95
85850;BME280;76337;42.850;-0.560;2024-02-21T05:10:10;89419.06;;;4.45;41.69
85850;BME280;76337;42.850;-0.560;2024-02-21T05:12:36;89428.44;;;4.61;39.86
85850;BME280;76337;42.850;-0.560;2024-02-21T05:15:04;89437.78;;;4.76;39.12
85850;BME280;76337;42.850;-0.560;2024-02-21T05:17:30;89440.63;;;4.70;41.02
85850;BME280;76337;42.850;-0.560;2024-02-21T05:19:57;89436.00;;;4.60;42.81
85850;BME280;76337;42.850;-0.560;2024-02-21T05:22:24;89432.84;;;4.45;44.16
85850;BME280;76337;42.850;-0.560;2024-02-21T05:24:50;89424.66;;;4.41;44.38
85850;BME280;76337;42.850;-0.560;2024-02-21T05:27:17;89424.13;;;4.33;42.62
85850;BME280;76337;42.850;-0.560;2024-02-21T05:29:43;89420.72;;;4.30;41.40
85850;BME280;76337;42.850;-0.560;2024-02-21T05:32:09;89422.09;;;4.31;43.13
85850;BME280;76337;42.850;-0.560;2024-02-21T05:34:36;89424.13;;;4.33;43.38
85850;BME280;76337;42.850;-0.560;2024-02-21T05:37:03;89424.84;;;4.31;43.98
85850;BME280;76337;42.850;-0.560;2024-02-21T05:39:29;89435.16;;;4.33;42.74
85850;BME280;76337;42.850;-0.560;2024-02-21T05:41:56;89423.47;;;4.32;42.95
85850;BME280;76337;42.850;-0.560;2024-02-21T05:44:22;89428.94;;;4.34;42.54
85850;BME280;76337;42.850;-0.560;2024-02-21T05:46:48;89423.38;;;4.36;43.65
85850;BME280;76337;42.850;-0.560;2024-02-21T05:49:15;89420.59;;;4.38;41.23
85850;BME280;76337;42.850;-0.560;2024-02-21T05:51:42;89417.78;;;4.40;40.95
85850;BME280;76337;42.850;-0.560;2024-02-21T05:54:08;89420.59;;;4.38;41.24
85850;BME280;76337;42.850;-0.560;2024-02-21T05:56:35;89427.47;;;4.37;42.24
85850;BME280;76337;42.850;-0.560;2024-02-21T05:59:01;89423.22;;;4.44;40.83
85850;BME280;76337;42.850;-0.560;2024-02-21T06:01:27;89414.22;;;4.46;41.53
85850;BME280;76337;42.850;-0.560;2024-02-21T06:03:54;89420.97;;;4.53;40.40
85850;BME280;76337;42.850;-0.560;2024-02-21T06:06:20;89416.75;;;4.58;42.45
85850;BME280;76337;42.850;-0.560;2024-02-21T06:08:48;89418.13;;;4.57;40.84
85850;BME280;76337;42.850;-0.560;2024-02-21T06:11:14;89422.81;;;4.65;41.41
85850;BME280;76337;42.850;-0.560;2024-02-21T06:13:41;89421.38;;;4.68;42.05
85850;BME280;76337;42.850;-0.560;2024-02-21T06:16:08;89426.13;;;4.71;41.08
85850;BME280;76337;42.850;-0.560;2024-02-21T06:18:35;89430.28;;;4.70;41.34
85850;BME280;76337;42.850;-0.560;2024-02-21T06:21:03;89428.78;;;4.77;40.67
85850;BME280;76337;42.850;-0.560;2024-02-21T06:23:29;89433.56;;;4.79;40.47
85850;BME280;76337;42.850;-0.560;2024-02-21T06:25:55;89424.78;;;4.70;40.75
85850;BME280;76337;42.850;-0.560;2024-02-21T06:28:22;89427.44;;;4.74;40.40
85850;BME280;76337;42.850;-0.560;2024-02-21T06:30:48;89437.03;;;4.77;40.79
85850;BME280;76337;42.850;-0.560;2024-02-21T06:33:13;89431.56;;;4.75;40.66
85850;BME280;76337;42.850;-0.560;2024-02-21T06:35:39;89434.41;;;4.71;39.74
85850;BME280;76337;42.850;-0.560;2024-02-21T06:38:07;89437.72;;;4.78;38.20
85850;BME280;76337;42.850;-0.560;2024-02-21T06:40:33;89427.03;;;4.94;36.86
85850;BME280;76337;42.850;-0.560;2024-02-21T06:43:04;89431.84;;;4.94;37.82
85850;BME280;76337;42.850;-0.560;2024-02-21T06:45:30;89427.66;;;4.97;39.62
85850;BME280;76337;42.850;-0.560;2024-02-21T06:47:55;89424.22;;;4.96;37.89
85850;BME280;76337;42.850;-0.560;2024-02-21T06:50:21;89412.41;;;5.02;37.44
85850;BME280;76337;42.850;-0.560;2024-02-21T06:52:47;89417.19;;;5.03;38.00
85850;BME280;76337;42.850;-0.560;2024-02-21T06:55:13;89420.22;;;4.91;38.61
85850;BME280;76337;42.850;-0.560;2024-02-21T06:57:39;89420.88;;;4.92;40.25
85850;BME280;76337;42.850;-0.560;2024-02-21T07:00:05;89410.63;;;4.88;39.65
85850;BME280;76337;42.850;-0.560;2024-02-21T07:02:34;89410.53;;;4.92;39.84
85850;BME280;76337;42.850;-0.560;2024-02-21T07:05:00;89407.13;;;4.90;38.63
85850;BME280;76337;42.850;-0.560;2024-02-21T07:07:26;89414.69;;;4.91;39.64
85850;BME280;76337;42.850;-0.560;2024-02-21T07:09:52;89408.31;;;4.99;37.78
85850;BME280;76337;42.850;-0.560;2024-02-21T07:12:19;89417.13;;;5.05;39.13
85850;BME280;76337;42.850;-0.560;2024-02-21T07:14:44;89412.25;;;5.39;35.55
85850;BME280;76337;42.850;-0.560;2024-02-21T07:17:10;89412.25;;;5.39;37.82
85850;BME280;76337;42.850;-0.560;2024-02-21T07:19:36;89412.94;;;5.39;38.92
85850;BME280;76337;42.850;-0.560;2024-02-21T07:22:02;89411.69;;;5.63;38.39
85850;BME280;76337;42.850;-0.560;2024-02-21T07:24:28;89404.28;;;5.84;34.82
85850;BME280;76337;42.850;-0.560;2024-02-21T07:26:53;89414.91;;;6.02;34.70
85850;BME280;76337;42.850;-0.560;2024-02-21T07:29:19;89418.69;;;6.15;32.86
85850;BME280;76337;42.850;-0.560;2024-02-21T07:31:45;89412.66;;;6.35;31.95
85850;BME280;76337;42.850;-0.560;2024-02-21T07:34:11;89415.09;;;6.21;35.56
85850;BME280;76337;42.850;-0.560;2024-02-21T07:36:37;89422.81;;;6.16;35.66
85850;BME280;76337;42.850;-0.560;2024-02-21T07:39:04;89424.13;;;6.19;38.33
85850;BME280;76337;42.850;-0.560;2024-02-21T07:41:30;89420.94;;;6.35;38.10
85850;BME280;76337;42.850;-0.560;2024-02-21T07:43:56;89429.53;;;6.50;35.51
85850;BME280;76337;42.850;-0.560;2024-02-21T07:46:22;89418.63;;;6.70;33.61
85850;BME280;76337;42.850;-0.560;2024-02-21T07:48:47;89426.00;;;6.78;34.64
85850;BME280;76337;42.850;-0.560;2024-02-21T07:51:13;89430.22;;;7.00;33.75
85850;BME280;76337;42.850;-0.560;2024-02-21T07:53:39;89428.53;;;7.11;35.01
85850;BME280;76337;42.850;-0.560;2024-02-21T07:56:11;89433.25;;;7.14;34.59
85850;BME280;76337;42.850;-0.560;2024-02-21T07:58:36;89436.00;;;7.16;33.50
85850;BME280;76337;42.850;-0.560;2024-02-21T08:01:02;89445.16;;;7.11;37.55
85850;BME280;76337;42.850;-0.560;2024-02-21T08:03:28;89436.22;;;7.08;37.64
85850;BME280;76337;42.850;-0.560;2024-02-21T08:05:54;89449.34;;;7.10;37.40
85850;BME280;76337;42.850;-0.560;2024-02-21T08:08:19;89449.69;;;7.90;31.87
85850;BME280;76337;42.850;-0.560;2024-02-21T08:10:48;89452.31;;;8.99;29.61
85850;BME280;76337;42.850;-0.560;2024-02-21T08:13:14;89440.34;;;10.15;29.80
85850;BME280;76337;42.850;-0.560;2024-02-21T08:15:40;89441.84;;;10.97;29.14
85850;BME280;76337;42.850;-0.560;2024-02-21T08:18:07;89437.78;;;12.04;27.87
85850;BME280;76337;42.850;-0.560;2024-02-21T08:20:33;89426.22;;;11.97;26.74
85850;BME280;76337;42.850;-0.560;2024-02-21T08:22:59;89440.38;;;12.66;27.89
85850;BME280;76337;42.850;-0.560;2024-02-21T08:25:25;89436.44;;;12.61;28.88
85850;BME280;76337;42.850;-0.560;2024-02-21T08:27:51;89432.44;;;12.86;27.31
85850;BME280;76337;42.850;-0.560;2024-02-21T08:30:17;89438.00;;;13.15;27.48
85850;BME280;76337;42.850;-0.560;2024-02-21T08:32:43;89431.91;;;13.25;20.62
85850;BME280;76337;42.850;-0.560;2024-02-21T08:35:09;89426.13;;;12.72;23.32
85850;BME280;76337;42.850;-0.560;2024-02-21T08:37:35;89434.81;;;12.66;21.29
85850;BME280;76337;42.850;-0.560;2024-02-21T08:40:01;89437.09;;;13.73;24.67
85850;BME280;76337;42.850;-0.560;2024-02-21T08:42:35;89434.50;;;14.21;22.06
85850;BME280;76337;42.850;-0.560;2024-02-21T08:45:02;89435.75;;;14.62;21.60
85850;BME280;76337;42.850;-0.560;2024-02-21T08:47:27;89432.19;;;15.24;21.70
85850;BME280;76337;42.850;-0.560;2024-02-21T08:49:53;89427.38;;;15.58;24.87
85850;BME280;76337;42.850;-0.560;2024-02-21T08:52:19;89413.22;;;16.07;21.31
85850;BME280;76337;42.850;-0.560;2024-02-21T08:54:45;89419.03;;;15.69;20.53
85850;BME280;76337;42.850;-0.560;2024-02-21T08:57:10;89416.91;;;16.26;21.05
85850;BME280;76337;42.850;-0.560;2024-02-21T08:59:36;89415.13;;;15.87;20.96
85850;BME280;76337;42.850;-0.560;2024-02-21T09:02:02;89424.66;;;15.69;20.57
85850;BME280;76337;42.850;-0.560;2024-02-21T09:04:29;89428.22;;;14.83;25.51
85850;BME280;76337;42.850;-0.560;2024-02-21T09:06:55;89416.56;;;14.16;25.36
85850;BME280;76337;42.850;-0.560;2024-02-21T09:09:20;89424.50;;;14.11;27.32
85850;BME280;76337;42.850;-0.560;2024-02-21T09:11:46;89431.03;;;14.83;27.39
85850;BME280;76337;42.850;-0.560;2024-02-21T09:14:12;89430.78;;;15.00;24.65
85850;BME280;76337;42.850;-0.560;2024-02-21T09:16:37;89418.91;;;15.48;22.90
85850;BME280;76337;42.850;-0.560;2024-02-21T09:19:03;89419.00;;;16.15;24.63
85850;BME280;76337;42.850;-0.560;2024-02-21T09:21:29;89425.50;;;16.35;25.44
85850;BME280;76337;42.850;-0.560;2024-02-21T09:23:55;89418.94;;;16.62;25.71
85850;BME280;76337;42.850;-0.560;2024-02-21T09:26:20;89425.72;;;16.20;24.55
85850;BME280;76337;42.850;-0.560;2024-02-21T09:28:46;89431.22;;;16.56;24.87
85850;BME280;76337;42.850;-0.560;2024-02-21T09:31:12;89429.94;;;16.42;23.02
85850;BME280;76337;42.850;-0.560;2024-02-21T09:33:38;89428.63;;;16.75;27.79
85850;BME280;76337;42.850;-0.560;2024-02-21T09:36:04;89416.56;;;16.87;23.04
85850;BME280;76337;42.850;-0.560;2024-02-21T09:38:32;89412.88;;;17.33;25.11
85850;BME280;76337;42.850;-0.560;2024-02-21T09:41:00;89407.28;;;18.05;22.95
85850;BME280;76337;42.850;-0.560;2024-02-21T09:43:26;89409.66;;;17.39;23.57
85850;BME280;76337;42.850;-0.560;2024-02-21T09:45:54;89409.50;;;17.09;23.98
85850;BME280;76337;42.850;-0.560;2024-02-21T09:48:30;89414.63;;;16.63;23.26
85850;BME280;76337;42.850;-0.560;2024-02-21T09:50:59;89411.25;;;17.47;25.52
85850;BME280;76337;42.850;-0.560;2024-02-21T09:53:26;89395.81;;;18.28;23.21
85850;BME280;76337;42.850;-0.560;2024-02-21T09:55:53;89399.25;;;18.10;22.96
85850;BME280;76337;42.850;-0.560;2024-02-21T09:58:19;89415.81;;;17.52;21.92
85850;BME280;76337;42.850;-0.560;2024-02-21T10:00:44;89423.59;;;17.62;20.27
85850;BME280;76337;42.850;-0.560;2024-02-21T10:03:10;89419.97;;;17.74;21.43
85850;BME280;76337;42.850;-0.560;2024-02-21T10:05:36;89402.88;;;17.97;19.69
85850;BME280;76337;42.850;-0.560;2024-02-21T10:08:03;89398.53;;;17.58;19.43
85850;BME280;76337;42.850;-0.560;2024-02-21T10:10:29;89399.75;;;17.30;17.83
85850;BME280;76337;42.850;-0.560;2024-02-21T10:12:55;89398.16;;;16.57;22.83
85850;BME280;76337;42.850;-0.560;2024-02-21T10:15:24;89396.47;;;16.38;15.97
85850;BME280;76337;42.850;-0.560;2024-02-21T10:18:05;89380.56;;;17.11;18.27
85850;BME280;76337;42.850;-0.560;2024-02-21T10:20:32;89391.13;;;17.00;20.54
85850;BME280;76337;42.850;-0.560;2024-02-21T10:23:01;89402.50;;;16.87;24.23
85850;BME280;76337;42.850;-0.560;2024-02-21T10:25:28;89405.31;;;16.77;18.41
85850;BME280;76337;42.850;-0.560;2024-02-21T10:27:56;89394.22;;;16.41;23.45
85850;BME280;76337;42.850;-0.560;2024-02-21T10:30:22;89409.28;;;16.25;22.32
85850;BME280;76337;42.850;-0.560;2024-02-21T10:32:52;89406.72;;;16.21;21.44
85850;BME280;76337;42.850;-0.560;2024-02-21T10:35:27;89407.34;;;16.11;23.01
85850;BME280;76337;42.850;-0.560;2024-02-21T10:37:55;89418.78;;;15.96;25.68
85850;BME280;76337;42.850;-0.560;2024-02-21T10:40:24;89413.03;;;15.75;25.13
85850;BME280;76337;42.850;-0.560;2024-02-21T10:42:56;89409.72;;;15.72;24.09
85850;BME280;76337;42.850;-0.560;2024-02-21T10:45:28;89410.63;;;16.26;22.31
85850;BME280;76337;42.850;-0.560;2024-02-21T10:47:56;89390.72;;;16.40;21.83
85850;BME280;76337;42.850;-0.560;2024-02-21T10:50:28;89398.16;;;16.57;18.30
85850;BME280;76337;42.850;-0.560;2024-02-21T10:53:09;89398.75;;;16.80;21.91
85850;BME280;76337;42.850;-0.560;2024-02-21T10:55:40;89402.63;;;16.75;19.65
85850;BME280;76337;42.850;-0.560;2024-02-21T10:58:09;89395.34;;;16.57;17.93
85850;BME280;76337;42.850;-0.560;2024-02-21T11:00:36;89399.97;;;16.39;16.71
85850;BME280;76337;42.850;-0.560;2024-02-21T11:03:03;89406.97;;;16.17;22.53
85850;BME280;76337;42.850;-0.560;2024-02-21T11:05:29;89396.22;;;16.42;24.80
85850;BME280;76337;42.850;-0.560;2024-02-21T11:07:57;89407.94;;;16.24;23.53
85850;BME280;76337;42.850;-0.560;2024-02-21T11:10:24;89384.91;;;16.21;24.51
85850;BME280;76337;42.850;-0.560;2024-02-21T11:12:54;89391.78;;;16.01;25.74
85850;BME280;76337;42.850;-0.560;2024-02-21T11:15:30;89394.31;;;15.48;24.29
85850;BME280;76337;42.850;-0.560;2024-02-21T11:17:56;89392.34;;;15.57;23.04
85850;BME280;76337;42.850;-0.560;2024-02-21T11:20:35;89384.19;;;15.77;25.47
85850;BME280;76337;42.850;-0.560;2024-02-21T11:23:01;89398.25;;;16.10;24.50
85850;BME280;76337;42.850;-0.560;2024-02-21T11:25:28;89382.25;;;16.53;27.51
85850;BME280;76337;42.850;-0.560;2024-02-21T11:28:02;89380.66;;;16.67;26.43
85850;BME280;76337;42.850;-0.560;2024-02-21T11:30:31;89381.31;;;16.57;26.76
85850;BME280;76337;42.850;-0.560;2024-02-21T11:33:00;89383.94;;;16.48;25.27
85850;BME280;76337;42.850;-0.560;2024-02-21T11:35:31;89380.50;;;16.69;27.63
85850;BME280;76337;42.850;-0.560;2024-02-21T11:38:08;89372.25;;;16.88;18.34
85850;BME280;76337;42.850;-0.560;2024-02-21T11:40:34;89374.25;;;16.79;25.21
85850;BME280;76337;42.850;-0.560;2024-02-21T11:43:00;89376.81;;;17.04;23.82
85850;BME280;76337;42.850;-0.560;2024-02-21T11:45:26;89367.81;;;16.80;26.31
85850;BME280;76337;42.850;-0.560;2024-02-21T11:47:52;89361.59;;;16.46;27.67
85850;BME280;76337;42.850;-0.560;2024-02-21T11:50:18;89358.75;;;16.02;30.21
85850;BME280;76337;42.850;-0.560;2024-02-21T11:52:44;89361.78;;;15.87;26.51
85850;BME280;76337;42.850;-0.560;2024-02-21T11:55:11;89351.88;;;15.88;27.54
85850;BME280;76337;42.850;-0.560;2024-02-21T11:57:38;89354.00;;;16.11;22.72
85850;BME280;76337;42.850;-0.560;2024-02-21T12:00:13;89346.44;;;15.97;18.97
85850;BME280;76337;42.850;-0.560;2024-02-21T12:02:41;89360.84;;;15.91;23.19
85850;BME280;76337;42.850;-0.560;2024-02-21T12:05:08;89350.22;;;16.04;19.11
85850;BME280;76337;42.850;-0.560;2024-02-21T12:07:35;89340.22;;;15.84;17.29
85850;BME280;76337;42.850;-0.560;2024-02-21T12:10:01;89335.03;;;15.88;20.81
85850;BME280;76337;42.850;-0.560;2024-02-21T12:12:28;89342.09;;;15.77;20.07
85850;BME280;76337;42.850;-0.560;2024-02-21T12:14:55;89323.59;;;15.69;16.94
85850;BME280;76337;42.850;-0.560;2024-02-21T12:17:23;89318.28;;;15.75;22.31
85850;BME280;76337;42.850;-0.560;2024-02-21T12:19:50;89323.41;;;15.84;21.63
85850;BME280;76337;42.850;-0.560;2024-02-21T12:22:18;89323.63;;;15.46;18.32
85850;BME280;76337;42.850;-0.560;2024-02-21T12:24:44;89328.19;;;15.51;19.58
85850;BME280;76337;42.850;-0.560;2024-02-21T12:27:13;89329.03;;;15.37;21.62
85850;BME280;76337;42.850;-0.560;2024-02-21T12:29:39;89324.91;;;15.00;27.28
85850;BME280;76337;42.850;-0.560;2024-02-21T12:32:05;89317.34;;;14.86;27.65
85850;BME280;76337;42.850;-0.560;2024-02-21T12:34:31;89317.31;;;14.63;26.84
85850;BME280;76337;42.850;-0.560;2024-02-21T12:36:58;89313.44;;;14.81;23.38
85850;BME280;76337;42.850;-0.560;2024-02-21T12:39:24;89302.66;;;14.86;25.35
85850;BME280;76337;42.850;-0.560;2024-02-21T12:41:54;89301.22;;;14.74;23.44
85850;BME280;76337;42.850;-0.560;2024-02-21T12:44:22;89289.50;;;14.95;23.23
85850;BME280;76337;42.850;-0.560;2024-02-21T12:46:49;89300.91;;;15.03;23.06
85850;BME280;76337;42.850;-0.560;2024-02-21T12:49:18;89289.44;;;15.08;24.48
85850;BME280;76337;42.850;-0.560;2024-02-21T12:51:44;89283.06;;;15.09;24.17
85850;BME280;76337;42.850;-0.560;2024-02-21T12:54:12;89279.41;;;15.23;26.01
85850;BME280;76337;42.850;-0.560;2024-02-21T12:56:38;89275.78;;;15.25;21.98